KABR/ABR METAR and TAF weather

Enter ICAO airport designator
Station Type Date Time Source
KABR METAR 2019/10/16 19:53 UTC NOAA

KABR 161953Z AUTO VRB05KT 10SM FEW026 09/01 A3007 RMK AO2 SLP192 T00890011


Station Type Date Time Source
KABR Decoded METAR 2019/10/16 19:53 UTC NOAA

ABERDEEN REGIONAL AIRPORT, SD, United States (KABR) 45-27N 098-25W 400M
Oct 16, 2019 - 03:53 PM EDT / 2019.10.16 1953 UTC
Wind: Variable at 6 MPH (5 KT):0
Visibility: 10 mile(s):0
Sky conditions: mostly clear
Temperature: 48.0 F (8.9 C)
Dew Point: 34.0 F (1.1 C)
Relative Humidity: 58%
Pressure (altimeter): 30.07 in. Hg (1018 hPa)
ob: KABR 161953Z AUTO VRB05KT 10SM FEW026 09/01 A3007 RMK AO2 SLP192 T00890011
cycle: 20

Station Type Date Time Source
KABR TAF 2019/10/16 18:40 UTC NOAA

TAF KABR 161737Z 1618/1718 19006KT P6SM SCT150
FM170000 15006KT P6SM SCT250

Example: see airport list